createdAt,value
2018-03-11T00:00:46.600Z,16.80
2018-03-11T00:03:14.067Z,18.97
2018-03-11T00:05:41.526Z,18.20
2018-03-11T00:08:09.276Z,17.20
2018-03-11T00:10:36.740Z,17.80
2018-03-11T00:13:04.193Z,18.97
2018-03-11T00:15:31.965Z,18.50
2018-03-11T00:17:59.426Z,18.33
2018-03-11T00:20:26.881Z,18.00
2018-03-11T00:22:54.660Z,17.80
2018-03-11T00:25:23.104Z,18.80
2018-03-11T00:27:50.557Z,19.00
2018-03-11T00:30:18.269Z,19.37
2018-03-11T00:32:45.738Z,18.37
2018-03-11T00:35:13.205Z,18.57
2018-03-11T00:37:40.954Z,17.67
2018-03-11T00:40:08.418Z,18.87
2018-03-11T00:42:35.881Z,18.60
2018-03-11T00:45:03.645Z,19.97
2018-03-11T00:47:31.184Z,18.83
2018-03-11T00:49:58.653Z,18.83
2018-03-11T00:52:26.330Z,21.30
2018-03-11T00:54:53.791Z,20.20
2018-03-11T00:57:21.434Z,114.60
2018-03-11T00:59:49.285Z,34.70
2018-03-11T01:02:16.738Z,21.00
2018-03-11T01:04:44.202Z,20.87
2018-03-11T01:07:12.019Z,19.47
2018-03-11T01:09:39.473Z,20.30
2018-03-11T01:12:06.930Z,19.37
2018-03-11T01:14:34.688Z,18.97
2018-03-11T01:17:02.149Z,19.17
2018-03-11T01:19:29.608Z,20.00
2018-03-11T01:21:57.324Z,17.70
2018-03-11T01:24:24.786Z,18.03
2018-03-11T01:26:53.006Z,21.03
2018-03-11T01:29:20.992Z,19.50
2018-03-11T01:31:48.454Z,20.60
2018-03-11T01:34:15.919Z,18.67
2018-03-11T01:36:43.588Z,19.77
2018-03-11T01:39:11.053Z,18.80
2018-03-11T01:41:38.522Z,18.80
2018-03-11T01:44:06.673Z,19.50
2018-03-11T01:46:34.131Z,175.43
2018-03-11T01:49:01.605Z,98.27
2018-03-11T01:51:29.685Z,25.37
2018-03-11T01:53:57.201Z,20.83
2018-03-11T01:56:24.657Z,18.00
2018-03-11T01:58:52.354Z,18.40
2018-03-11T02:01:19.810Z,16.50
2018-03-11T02:03:47.260Z,18.90
2018-03-11T02:06:15.041Z,19.57
2018-03-11T02:08:42.499Z,19.77
2018-03-11T02:11:09.962Z,20.33
2018-03-11T02:13:37.739Z,18.43
2018-03-11T02:16:05.199Z,18.43
2018-03-11T02:18:32.671Z,17.20
2018-03-11T02:21:00.734Z,19.83
2018-03-11T02:23:28.209Z,19.90
2018-03-11T02:25:55.677Z,19.60
2018-03-11T02:28:23.733Z,19.40
2018-03-11T02:30:51.192Z,18.30
2018-03-11T02:33:18.644Z,18.20
2018-03-11T02:35:46.410Z,18.43
2018-03-11T02:38:13.869Z,17.80
2018-03-11T02:40:41.336Z,16.47
2018-03-11T02:43:09.116Z,15.60
2018-03-11T02:45:36.574Z,16.40
2018-03-11T02:48:04.039Z,14.87
2018-03-11T02:50:32.429Z,14.10
2018-03-11T02:52:59.888Z,15.60
2018-03-11T02:55:27.345Z,13.20
2018-03-11T02:57:55.091Z,13.53
2018-03-11T03:00:22.549Z,13.33
2018-03-11T03:02:50.009Z,14.80
2018-03-11T03:05:18.072Z,13.30
2018-03-11T03:07:45.529Z,14.70
2018-03-11T03:10:12.993Z,14.83
2018-03-11T03:12:41.072Z,13.50
2018-03-11T03:15:08.529Z,13.40
2018-03-11T03:17:35.992Z,13.50
2018-03-11T03:20:04.373Z,14.47
2018-03-11T03:22:31.840Z,14.40
2018-03-11T03:24:59.307Z,12.37
2018-03-11T03:27:27.365Z,14.50
2018-03-11T03:29:55.209Z,12.53
2018-03-11T03:32:22.666Z,14.57
2018-03-11T03:34:50.972Z,13.90
2018-03-11T03:37:18.425Z,14.73
2018-03-11T03:39:45.886Z,15.13
2018-03-11T03:42:13.662Z,15.93
2018-03-11T03:44:41.133Z,15.27
2018-03-11T03:47:08.641Z,14.70
2018-03-11T03:49:36.978Z,12.40
2018-03-11T03:52:04.436Z,14.63
2018-03-11T03:54:32.382Z,15.07
2018-03-11T03:57:00.315Z,14.83
2018-03-11T03:59:27.777Z,15.50
2018-03-11T04:01:55.272Z,15.27
2018-03-11T04:04:23.250Z,15.87
2018-03-11T04:06:50.713Z,14.30
2018-03-11T04:09:18.180Z,14.97
2018-03-11T04:11:46.247Z,14.97
2018-03-11T04:14:13.690Z,14.50
2018-03-11T04:16:41.184Z,14.37
2018-03-11T04:19:08.947Z,15.77
2018-03-11T04:21:36.410Z,15.40
2018-03-11T04:24:03.877Z,18.57
2018-03-11T04:26:31.940Z,20.43
2018-03-11T04:28:59.404Z,20.20
2018-03-11T04:31:29.090Z,17.50
2018-03-11T04:33:57.076Z,19.37
2018-03-11T04:36:24.557Z,19.30
2018-03-11T04:38:52.020Z,19.40
2018-03-11T04:41:19.849Z,19.47
2018-03-11T04:43:47.322Z,17.70
2018-03-11T04:46:14.781Z,17.30
2018-03-11T04:48:43.076Z,17.40
2018-03-11T04:51:10.541Z,19.17
2018-03-11T04:53:38.011Z,17.60
2018-03-11T04:56:05.784Z,16.90
2018-03-11T04:58:33.250Z,17.47
2018-03-11T05:01:00.711Z,17.20
2018-03-11T05:03:28.438Z,18.90
2018-03-11T05:05:55.913Z,17.17
2018-03-11T05:08:23.399Z,16.73
2018-03-11T05:10:51.452Z,18.10
2018-03-11T05:13:18.905Z,15.57
2018-03-11T05:15:46.357Z,15.77
2018-03-11T05:18:14.426Z,16.40
2018-03-11T05:20:41.887Z,14.30
2018-03-11T05:23:09.353Z,16.50
2018-03-11T05:25:36.940Z,19.20
2018-03-11T05:28:04.413Z,22.10
2018-03-11T05:30:31.873Z,21.73
2018-03-11T05:33:00.310Z,24.80
2018-03-11T05:35:27.778Z,23.27
2018-03-11T05:37:55.245Z,21.70
2018-03-11T05:40:23.112Z,19.50
2018-03-11T05:42:50.574Z,21.73
2018-03-11T05:45:18.033Z,17.97
2018-03-11T05:47:45.798Z,17.80
2018-03-11T05:50:13.265Z,20.13
2018-03-11T05:52:40.736Z,18.87
2018-03-11T05:55:08.778Z,19.23
2018-03-11T05:57:36.238Z,19.77
2018-03-11T06:00:04.065Z,19.63
2018-03-11T06:02:31.796Z,19.63
2018-03-11T06:04:59.262Z,20.30
2018-03-11T06:07:26.716Z,20.17
2018-03-11T06:09:54.519Z,20.07
2018-03-11T06:12:21.986Z,18.43
2018-03-11T06:14:49.454Z,17.83
2018-03-11T06:17:17.462Z,19.80
2018-03-11T06:19:44.914Z,18.60
2018-03-11T06:22:12.373Z,17.27
2018-03-11T06:24:40.092Z,15.80
2018-03-11T06:27:07.541Z,14.80
2018-03-11T06:29:34.998Z,15.97
2018-03-11T06:32:02.892Z,16.40
2018-03-11T06:34:30.912Z,16.47
2018-03-11T06:36:58.381Z,15.90
2018-03-11T06:39:26.097Z,14.87
2018-03-11T06:41:53.565Z,17.37
2018-03-11T06:44:21.029Z,15.60
2018-03-11T06:46:48.860Z,16.87
2018-03-11T06:49:16.309Z,15.93
2018-03-11T06:51:43.760Z,17.20
2018-03-11T06:54:11.810Z,16.77
2018-03-11T06:56:39.272Z,15.63
2018-03-11T06:59:06.717Z,16.30
2018-03-11T07:01:34.814Z,17.83
2018-03-11T07:04:02.271Z,22.40
2018-03-11T07:06:29.730Z,17.43
2018-03-11T07:08:57.496Z,26.33
2018-03-11T07:11:24.945Z,14.80
2018-03-11T07:13:52.403Z,19.10
2018-03-11T07:16:20.205Z,11.00
2018-03-11T07:18:47.657Z,14.27
2018-03-11T07:21:15.121Z,14.50
2018-03-11T07:23:42.880Z,15.33
2018-03-11T07:26:10.332Z,13.37
2018-03-11T07:28:37.790Z,16.57
2018-03-11T07:31:05.884Z,17.13
2018-03-11T07:33:33.354Z,17.90
2018-03-11T07:36:01.812Z,19.60
2018-03-11T07:38:29.504Z,19.80
2018-03-11T07:40:56.986Z,18.83
2018-03-11T07:43:24.429Z,17.87
2018-03-11T07:45:52.180Z,18.00
2018-03-11T07:48:19.625Z,19.63
2018-03-11T07:50:47.072Z,18.70
2018-03-11T07:53:14.861Z,18.70
2018-03-11T07:55:42.325Z,16.63
2018-03-11T07:58:09.785Z,18.63
2018-03-11T08:00:37.539Z,16.43
2018-03-11T08:03:04.998Z,13.87
2018-03-11T08:05:32.459Z,14.67
2018-03-11T08:08:00.237Z,15.60
2018-03-11T08:10:27.710Z,15.67
2018-03-11T08:12:55.171Z,13.30
2018-03-11T08:15:23.232Z,13.80
2018-03-11T08:17:50.689Z,16.40
2018-03-11T08:20:18.201Z,17.30
2018-03-11T08:22:46.239Z,16.83
2018-03-11T08:25:13.701Z,15.10
2018-03-11T08:27:41.166Z,17.93
2018-03-11T08:30:08.900Z,19.97
2018-03-11T08:32:36.361Z,21.50
2018-03-11T08:35:03.825Z,19.57
2018-03-11T08:37:32.206Z,24.43
2018-03-11T08:39:59.661Z,24.93
2018-03-11T08:42:27.120Z,23.47
2018-03-11T08:44:54.898Z,23.23
2018-03-11T08:47:22.353Z,25.57
2018-03-11T08:49:49.825Z,22.80
2018-03-11T08:52:17.984Z,23.13
2018-03-11T08:54:45.444Z,25.30
2018-03-11T08:57:12.926Z,25.83
2018-03-11T08:59:40.882Z,25.77
2018-03-11T09:02:08.349Z,26.00
2018-03-11T09:04:35.808Z,25.97
2018-03-11T09:07:03.623Z,27.03
2018-03-11T09:09:31.091Z,26.50
2018-03-11T09:11:58.539Z,25.40
2018-03-11T09:14:26.447Z,24.43
2018-03-11T09:16:53.906Z,26.33
2018-03-11T09:19:21.375Z,22.77
2018-03-11T09:21:49.250Z,23.90
2018-03-11T09:24:16.716Z,24.30
2018-03-11T09:26:44.181Z,24.10
2018-03-11T09:29:12.240Z,22.77
2018-03-11T09:31:39.739Z,25.30
2018-03-11T09:34:07.190Z,25.33
2018-03-11T09:36:34.935Z,25.33
2018-03-11T09:39:03.427Z,24.20
2018-03-11T09:41:30.890Z,27.60
2018-03-11T09:43:58.625Z,27.70
2018-03-11T09:46:26.173Z,27.67
2018-03-11T09:48:53.645Z,28.50
2018-03-11T09:51:21.584Z,27.00
2018-03-11T09:53:49.046Z,29.07
2018-03-11T09:56:16.503Z,25.23
2018-03-11T09:58:44.267Z,27.50
2018-03-11T10:01:11.731Z,26.13
2018-03-11T10:03:39.201Z,27.10
2018-03-11T10:06:06.909Z,28.47
2018-03-11T10:08:34.420Z,25.93
2018-03-11T10:11:01.878Z,26.47
2018-03-11T10:13:29.660Z,26.50
2018-03-11T10:15:57.085Z,28.13
2018-03-11T10:18:24.553Z,27.33
2018-03-11T10:20:52.291Z,26.13
2018-03-11T10:23:19.753Z,25.23
2018-03-11T10:25:47.210Z,25.97
2018-03-11T10:28:15.011Z,27.73
2018-03-11T10:30:43.611Z,26.37
2018-03-11T10:33:11.070Z,25.63
2018-03-11T10:35:38.887Z,27.30
2018-03-11T10:38:06.336Z,26.17
2018-03-11T10:40:34.497Z,26.73
2018-03-11T10:43:02.476Z,25.50
2018-03-11T10:45:29.931Z,27.13
2018-03-11T10:47:57.394Z,27.67
2018-03-11T10:50:25.489Z,25.97
2018-03-11T10:52:52.956Z,27.97
2018-03-11T10:55:20.420Z,25.93
2018-03-11T10:57:48.175Z,23.27
2018-03-11T11:00:15.641Z,26.60
2018-03-11T11:02:43.102Z,26.27
2018-03-11T11:05:10.868Z,24.10
2018-03-11T11:07:38.345Z,27.57
2018-03-11T11:10:05.809Z,25.17
2018-03-11T11:12:33.586Z,25.70
2018-03-11T11:15:01.046Z,26.23
2018-03-11T11:17:28.505Z,25.07
2018-03-11T11:19:56.241Z,25.70
2018-03-11T11:22:23.706Z,26.17
2018-03-11T11:24:51.165Z,42.30
2018-03-11T11:27:18.925Z,28.70
2018-03-11T11:29:46.385Z,24.50
2018-03-11T11:32:13.841Z,22.53
2018-03-11T11:34:41.872Z,22.93
2018-03-11T11:37:09.330Z,22.73
2018-03-11T11:39:36.794Z,22.00
2018-03-11T11:42:05.227Z,23.00
2018-03-11T11:44:32.696Z,23.73
2018-03-11T11:47:00.159Z,23.27
2018-03-11T11:49:27.972Z,20.60
2018-03-11T11:51:55.424Z,22.60
2018-03-11T11:54:22.896Z,22.03
2018-03-11T11:56:50.904Z,23.00
2018-03-11T11:59:18.376Z,23.57
2018-03-11T12:01:45.838Z,25.20
2018-03-11T12:04:13.604Z,23.00
2018-03-11T12:06:41.055Z,23.00
2018-03-11T12:09:08.515Z,24.27
2018-03-11T12:11:36.580Z,25.80
2018-03-11T12:14:04.036Z,23.70
2018-03-11T12:16:31.491Z,25.43
2018-03-11T12:18:59.267Z,27.00
2018-03-11T12:21:26.729Z,24.10
2018-03-11T12:23:54.197Z,25.40
2018-03-11T12:26:21.957Z,23.53
2018-03-11T12:28:49.452Z,23.37
2018-03-11T12:31:16.913Z,23.27
2018-03-11T12:33:44.903Z,22.40
2018-03-11T12:36:12.374Z,24.10
2018-03-11T12:38:39.840Z,25.40
2018-03-11T12:41:08.256Z,22.17
2018-03-11T12:43:35.805Z,22.77
2018-03-11T12:46:03.270Z,23.67
2018-03-11T12:48:31.246Z,23.50
2018-03-11T12:50:58.741Z,22.43
2018-03-11T12:53:26.206Z,23.13
2018-03-11T12:55:53.948Z,21.70
2018-03-11T12:58:21.424Z,21.50
2018-03-11T13:00:48.891Z,19.20
2018-03-11T13:03:17.009Z,21.03
2018-03-11T13:05:44.476Z,19.43
2018-03-11T13:08:11.934Z,17.47
2018-03-11T13:10:39.936Z,18.10
2018-03-11T13:13:07.402Z,18.90
2018-03-11T13:15:34.858Z,17.27
2018-03-11T13:18:02.607Z,15.93
2018-03-11T13:23:48.515Z,16.13
2018-03-11T13:26:15.996Z,17.20
2018-03-11T13:28:48.149Z,15.87
2018-03-11T13:31:15.832Z,18.93
2018-03-11T13:33:54.894Z,16.43
2018-03-11T13:36:22.749Z,17.53
2018-03-11T13:39:01.844Z,18.70
2018-03-11T13:41:29.636Z,15.47
2018-03-11T13:43:57.482Z,16.67
2018-03-11T13:46:36.804Z,14.53
2018-03-11T13:49:04.269Z,14.70
2018-03-11T13:51:43.737Z,10.27
2018-03-11T13:54:11.198Z,9.40
2018-03-11T13:56:38.655Z,9.37
2018-03-11T13:59:06.425Z,9.10
2018-03-11T14:01:33.872Z,8.03
2018-03-11T14:04:01.332Z,8.80
2018-03-11T14:06:29.131Z,9.90
2018-03-11T14:08:56.589Z,7.63
2018-03-11T14:11:24.063Z,8.27
2018-03-11T14:13:51.805Z,8.03
2018-03-11T14:16:19.253Z,7.77
2018-03-11T14:18:46.707Z,8.07
2018-03-11T14:21:14.449Z,7.93
2018-03-11T14:23:41.899Z,8.73
2018-03-11T14:26:09.353Z,8.00
2018-03-11T14:28:37.172Z,7.70
2018-03-11T14:31:04.640Z,8.10
2018-03-11T14:33:32.111Z,7.83
2018-03-11T14:35:59.852Z,7.80
2018-03-11T14:38:27.300Z,8.10
2018-03-11T14:40:54.758Z,7.27
2018-03-11T14:43:22.545Z,7.57
2018-03-11T14:45:50.388Z,8.53
2018-03-11T14:48:17.841Z,9.03
2018-03-11T14:50:45.553Z,6.90
2018-03-11T14:53:13.026Z,8.00
2018-03-11T14:55:40.481Z,7.97
2018-03-11T14:58:08.225Z,8.77
2018-03-11T15:00:35.724Z,10.23
2018-03-11T15:03:03.181Z,10.50
2018-03-11T15:05:31.209Z,9.40
2018-03-11T15:07:58.665Z,9.63
2018-03-11T15:10:26.125Z,10.00
2018-03-11T15:12:53.903Z,8.90
2018-03-11T15:15:21.352Z,9.60
2018-03-11T15:17:48.804Z,9.17
2018-03-11T15:20:16.600Z,9.60
2018-03-11T15:22:44.052Z,9.93
2018-03-11T15:25:11.511Z,9.50
2018-03-11T15:27:39.241Z,8.70
2018-03-11T15:30:06.716Z,8.90
2018-03-11T15:32:34.179Z,8.20
2018-03-11T15:35:01.980Z,8.60
2018-03-11T15:37:29.441Z,7.60
2018-03-11T15:39:56.910Z,8.10
2018-03-11T15:42:24.538Z,8.57
2018-03-11T15:44:51.987Z,8.10
2018-03-11T15:47:21.193Z,8.93
2018-03-11T15:49:48.890Z,12.70
2018-03-11T15:52:16.353Z,9.17
2018-03-11T15:54:43.799Z,8.63
2018-03-11T15:57:11.565Z,8.10
2018-03-11T15:59:39.016Z,9.50
2018-03-11T16:02:06.477Z,8.90
2018-03-11T16:04:34.305Z,9.00
2018-03-11T16:07:01.772Z,10.70
2018-03-11T16:09:29.225Z,8.70
2018-03-11T16:11:56.962Z,10.10
2018-03-11T16:14:24.417Z,8.50
2018-03-11T16:16:51.883Z,10.20
2018-03-11T16:19:19.636Z,9.97
2018-03-11T16:21:47.109Z,9.30
2018-03-11T16:24:14.560Z,10.67
2018-03-11T16:26:42.328Z,9.60
2018-03-11T16:29:09.797Z,10.33
2018-03-11T16:31:37.257Z,10.60
2018-03-11T16:34:04.930Z,10.80
2018-03-11T16:36:32.386Z,9.63
2018-03-11T16:38:59.841Z,10.73
2018-03-11T16:41:27.695Z,10.90
2018-03-11T16:43:55.158Z,10.10
2018-03-11T16:46:22.638Z,10.47
2018-03-11T16:48:51.613Z,9.43
2018-03-11T16:51:19.067Z,10.77
2018-03-11T16:53:46.528Z,10.50
2018-03-11T16:56:14.606Z,10.07
2018-03-11T16:58:42.062Z,11.53
2018-03-11T17:01:09.531Z,11.13
2018-03-11T17:03:37.296Z,11.07
2018-03-11T17:06:04.765Z,12.10
2018-03-11T17:08:32.225Z,10.70
2018-03-11T17:11:00.283Z,11.93
2018-03-11T17:13:27.749Z,12.13
2018-03-11T17:15:55.206Z,11.80
2018-03-11T17:18:22.947Z,12.57
2018-03-11T17:20:50.413Z,13.57
2018-03-11T17:23:17.869Z,11.53
2018-03-11T17:25:45.668Z,10.90
2018-03-11T17:28:13.125Z,10.93
2018-03-11T17:30:40.589Z,13.40
2018-03-11T17:33:08.348Z,12.20
2018-03-11T17:35:35.817Z,13.40
2018-03-11T17:38:03.303Z,12.70
2018-03-11T17:40:31.650Z,14.30
2018-03-11T17:42:59.161Z,13.77
2018-03-11T17:45:26.629Z,13.10
2018-03-11T17:47:54.637Z,14.60
2018-03-11T17:50:22.480Z,13.50
2018-03-11T17:52:49.940Z,14.60
2018-03-11T17:55:17.637Z,13.13
2018-03-11T17:57:45.090Z,14.90
2018-03-11T18:00:12.548Z,14.50
2018-03-11T18:02:40.638Z,13.70
2018-03-11T18:05:08.106Z,12.77
2018-03-11T18:07:35.582Z,11.60
2018-03-11T18:10:03.340Z,21.20
2018-03-11T18:12:30.888Z,16.30
2018-03-11T18:14:58.287Z,13.80
2018-03-11T18:17:26.006Z,19.73
2018-03-11T18:19:53.467Z,18.87
2018-03-11T18:22:20.941Z,14.00
2018-03-11T18:24:49.036Z,12.43
2018-03-11T18:27:16.497Z,12.90
2018-03-11T18:29:43.954Z,12.20
2018-03-11T18:32:11.730Z,12.10
2018-03-11T18:34:39.179Z,12.73
2018-03-11T18:37:06.627Z,12.17
2018-03-11T18:39:34.580Z,13.03
2018-03-11T18:42:02.045Z,12.40
2018-03-11T18:44:29.508Z,12.07
2018-03-11T18:46:57.364Z,12.40
2018-03-11T18:49:24.838Z,10.90
2018-03-11T18:51:52.672Z,10.90
2018-03-11T18:54:20.680Z,12.33
2018-03-11T18:56:48.149Z,12.87
2018-03-11T18:59:15.633Z,14.07
2018-03-11T19:01:43.687Z,11.77
2018-03-11T19:04:11.146Z,10.57
2018-03-11T19:06:38.605Z,12.10
2018-03-11T19:09:06.227Z,11.10
2018-03-11T19:11:33.678Z,12.07
2018-03-11T19:14:01.129Z,11.80
2018-03-11T19:16:29.063Z,14.30
2018-03-11T19:18:56.512Z,11.33
2018-03-11T19:21:24.344Z,11.33
2018-03-11T19:23:52.270Z,15.60
2018-03-11T19:26:19.733Z,17.17
2018-03-11T19:28:47.209Z,13.87
2018-03-11T19:31:15.056Z,11.50
2018-03-11T19:33:42.513Z,10.30
2018-03-11T19:36:09.976Z,10.80
2018-03-11T19:38:37.726Z,11.40
2018-03-11T19:41:05.213Z,10.97
2018-03-11T19:43:32.663Z,12.40
2018-03-11T19:46:01.021Z,11.07
2018-03-11T19:48:28.484Z,13.00
2018-03-11T19:50:55.952Z,15.07
2018-03-11T19:53:24.023Z,14.20
2018-03-11T19:55:51.518Z,11.20
2018-03-11T19:58:18.962Z,11.77
2018-03-11T20:00:46.771Z,12.10
2018-03-11T20:03:14.240Z,11.83
2018-03-11T20:05:41.874Z,12.10
2018-03-11T20:08:09.697Z,10.30
2018-03-11T20:10:37.189Z,10.80
2018-03-11T20:13:04.647Z,12.00
2018-03-11T20:15:32.288Z,10.93
2018-03-11T20:17:59.758Z,10.67
2018-03-11T20:20:27.230Z,12.73
2018-03-11T20:22:55.071Z,10.97
2018-03-11T20:25:22.533Z,9.67
2018-03-11T20:27:50.030Z,11.23
2018-03-11T20:30:17.966Z,11.90
2018-03-11T20:32:45.437Z,11.67
2018-03-11T20:35:12.917Z,11.87
2018-03-11T20:37:40.662Z,11.03
2018-03-11T20:40:08.136Z,11.43
2018-03-11T20:42:35.600Z,12.27
2018-03-11T20:45:03.322Z,11.60
2018-03-11T20:47:30.786Z,11.47
2018-03-11T20:49:58.269Z,12.53
2018-03-11T20:52:26.074Z,10.80
2018-03-11T20:54:54.015Z,11.03
2018-03-11T20:57:21.453Z,10.10
2018-03-11T20:59:49.382Z,11.80
2018-03-11T21:02:16.842Z,12.80
2018-03-11T21:04:44.370Z,16.30
2018-03-11T21:07:12.143Z,11.97
2018-03-11T21:09:39.592Z,10.80
2018-03-11T21:12:07.047Z,16.03
2018-03-11T21:14:35.114Z,13.10
2018-03-11T21:17:02.638Z,11.30
2018-03-11T21:19:30.062Z,11.70
2018-03-11T21:21:57.798Z,10.70
2018-03-11T21:24:25.285Z,10.30
2018-03-11T21:26:52.734Z,9.63
2018-03-11T21:29:20.526Z,11.47
2018-03-11T21:31:48.010Z,10.50
2018-03-11T21:34:15.468Z,9.30
2018-03-11T21:36:43.496Z,8.67
2018-03-11T21:39:10.961Z,10.10
2018-03-11T21:41:38.426Z,11.03
2018-03-11T21:44:06.194Z,10.80
2018-03-11T21:46:33.704Z,10.90
2018-03-11T21:49:01.137Z,9.50
2018-03-11T21:51:28.853Z,7.97
2018-03-11T21:53:56.318Z,7.00
2018-03-11T21:56:24.162Z,8.33
2018-03-11T21:58:51.849Z,9.37
2018-03-11T22:01:19.324Z,9.07
2018-03-11T22:03:46.779Z,9.20
2018-03-11T22:06:14.413Z,8.43
2018-03-11T22:08:41.870Z,8.30
2018-03-11T22:11:09.326Z,7.50
2018-03-11T22:13:37.284Z,7.10
2018-03-11T22:16:04.742Z,5.80
2018-03-11T22:18:32.196Z,5.17
2018-03-11T22:21:00.219Z,4.87
2018-03-11T22:23:27.682Z,4.80
2018-03-11T22:25:55.155Z,4.83
2018-03-11T22:28:22.777Z,4.43
2018-03-11T22:30:50.224Z,4.30
2018-03-11T22:33:17.676Z,4.00
2018-03-11T22:35:45.611Z,4.00
2018-03-11T22:38:13.050Z,3.23
2018-03-11T22:40:40.511Z,3.80
2018-03-11T22:43:08.584Z,4.07
2018-03-11T22:45:36.040Z,4.40
2018-03-11T22:48:03.500Z,3.70
2018-03-11T22:50:31.614Z,3.93
2018-03-11T22:52:59.050Z,3.60
2018-03-11T22:55:26.507Z,3.37
2018-03-11T22:57:55.498Z,3.50
2018-03-11T23:00:22.954Z,2.37
2018-03-11T23:02:50.400Z,3.83
2018-03-11T23:05:18.478Z,2.93
2018-03-11T23:07:45.925Z,2.90
2018-03-11T23:10:13.384Z,2.83
2018-03-11T23:12:41.274Z,2.60
2018-03-11T23:15:08.773Z,2.80
2018-03-11T23:17:36.198Z,2.53
2018-03-11T23:20:03.853Z,3.03
2018-03-11T23:22:31.290Z,2.67
2018-03-11T23:24:58.742Z,2.77
2018-03-11T23:27:26.467Z,2.70
2018-03-11T23:29:53.926Z,2.07
2018-03-11T23:32:21.376Z,2.60
2018-03-11T23:34:49.088Z,2.47
2018-03-11T23:37:16.548Z,2.37
2018-03-11T23:39:44.011Z,2.70
2018-03-11T23:42:11.746Z,3.00
2018-03-11T23:44:39.776Z,3.43
2018-03-11T23:47:07.239Z,2.80
2018-03-11T23:49:35.228Z,2.33
2018-03-11T23:52:02.677Z,3.63
2018-03-11T23:54:30.121Z,3.20
2018-03-11T23:56:57.933Z,3.70
2018-03-11T23:59:25.738Z,3.27
